Time;durP1;ratioP1;P1;durP2;ratioP2;P2;SDS_P1;SDS_P2;PMS_P1;PMS_P2;Temp;Humidity;BMP_temperature;BMP_pressure;BME280_temperature;BME280_humidity;BME280_pressure;Samples;Min_cycle;Max_cycle;Signal;HPM_P1;HPM_P2
2023/01/11 00:01:33;;;;;;;3.58;0.90;;;;;;;2.98;95.85;100752.47;4995086;28;20082;-77
2023/01/11 00:03:58;;;;;;;4.18;0.75;;;;;;;2.96;95.90;100745.44;4995434;28;20027;-77
2023/01/11 00:06:24;;;;;;;1.70;0.47;;;;;;;2.92;95.51;100746.22;4993782;28;20393;-77
2023/01/11 00:08:49;;;;;;;4.95;0.90;;;;;;;2.88;95.77;100737.41;4994898;28;20614;-76
2023/01/11 00:11:15;;;;;;;7.18;1.25;;;;;;;2.89;95.78;100738.31;4994560;28;20061;-77
2023/01/11 00:13:42;;;;;;;5.07;1.00;;;;;;;2.88;95.71;100734.81;4994206;28;20034;-77
2023/01/11 00:16:08;;;;;;;5.50;1.15;;;;;;;2.96;95.65;100733.31;4993804;28;20066;-76
2023/01/11 00:18:34;;;;;;;3.38;0.70;;;;;;;2.95;94.91;100720.22;4994368;28;20042;-74
2023/01/11 00:21:04;;;;;;;3.50;0.82;;;;;;;2.95;95.27;100715.00;4994371;28;20045;-74
2023/01/11 00:23:30;;;;;;;6.80;1.00;;;;;;;2.93;94.87;100712.34;4994515;28;20401;-74
2023/01/11 00:25:56;;;;;;;3.65;0.80;;;;;;;2.96;95.37;100707.25;4990309;28;20066;-76
2023/01/11 00:28:21;;;;;;;2.60;0.75;;;;;;;2.98;95.09;100700.31;4994435;28;20101;-77
2023/01/11 00:30:49;;;;;;;4.38;0.95;;;;;;;3.06;94.96;100680.56;5001823;28;20042;-77
2023/01/11 00:33:15;;;;;;;4.72;0.80;;;;;;;3.22;94.97;100691.41;4994389;28;20085;-77
2023/01/11 00:35:40;;;;;;;3.78;0.85;;;;;;;3.34;93.55;100694.31;4993215;28;20070;-76
2023/01/11 00:38:05;;;;;;;3.80;1.20;;;;;;;3.46;93.48;100685.94;5001123;23;20149;-77
2023/01/11 00:40:31;;;;;;;4.55;1.13;;;;;;;3.58;93.02;100685.34;4974672;28;20042;-76
2023/01/11 00:48:23;;;;;;;3.95;0.80;;;;;;;3.81;91.30;100680.69;4969728;28;20035;-77
2023/01/11 00:50:52;;;;;;;4.03;0.90;;;;;;;3.89;91.43;100674.78;4966543;28;20035;-76
2023/01/11 00:53:18;;;;;;;4.80;1.00;;;;;;;3.95;91.17;100679.28;4964040;28;20044;-76
2023/01/11 00:55:43;;;;;;;4.30;1.40;;;;;;;3.99;90.83;100675.91;4961741;28;20039;-76
2023/01/11 00:58:09;;;;;;;5.00;1.02;;;;;;;4.00;90.71;100676.78;4964260;28;20038;-77
2023/01/11 01:00:34;;;;;;;3.67;1.35;;;;;;;3.92;90.34;100668.75;4965437;28;20097;-77
2023/01/11 01:02:59;;;;;;;4.18;0.98;;;;;;;3.98;90.39;100665.41;4963149;28;20073;-77
2023/01/11 01:05:25;;;;;;;3.25;1.17;;;;;;;4.02;90.41;100657.69;4965721;28;20039;-76
2023/01/11 01:07:50;;;;;;;3.47;0.80;;;;;;;4.09;89.98;100656.09;4962137;28;20070;-76
2023/01/11 01:10:17;;;;;;;5.60;1.10;;;;;;;4.14;90.21;100657.97;4964941;28;20046;-76
2023/01/11 01:15:27;;;;;;;3.15;1.20;;;;;;;4.24;89.07;100640.72;4964403;28;20034;-77
2023/01/11 01:17:53;;;;;;;5.07;1.30;;;;;;;4.25;89.37;100642.50;4964333;28;20553;-77
2023/01/11 01:20:21;;;;;;;4.45;1.17;;;;;;;4.28;89.08;100641.69;4963385;28;20054;-76
2023/01/11 01:22:47;;;;;;;7.85;1.80;;;;;;;4.30;88.91;100647.84;4965765;28;20043;-76
2023/01/11 01:25:12;;;;;;;5.22;1.50;;;;;;;4.32;88.03;100644.41;4962829;28;20130;-77
2023/01/11 01:27:38;;;;;;;3.88;1.70;;;;;;;4.33;88.59;100638.31;4964313;28;20123;-77
2023/01/11 01:30:04;;;;;;;7.68;1.60;;;;;;;4.44;88.74;100646.38;4965237;28;20077;-77
2023/01/11 01:32:30;;;;;;;5.68;1.20;;;;;;;4.46;88.03;100643.81;4964402;28;20038;-76
2023/01/11 01:34:55;;;;;;;4.40;0.95;;;;;;;4.46;88.44;100635.97;4962744;28;20114;-76
2023/01/11 01:37:20;;;;;;;3.67;1.35;;;;;;;4.48;88.02;100640.38;4961294;28;20039;-77
2023/01/11 01:39:45;;;;;;;4.88;1.40;;;;;;;4.56;87.86;100630.09;4962699;28;20043;-76
2023/01/11 01:42:16;;;;;;;4.35;1.30;;;;;;;4.64;87.61;100620.66;4964957;28;20045;-76
2023/01/11 01:44:54;;;;;;;5.85;1.30;;;;;;;4.67;88.13;100628.56;4962129;28;20027;-77
2023/01/11 01:47:25;;;;;;;6.85;1.30;;;;;;;4.71;87.54;100622.50;4960846;28;20482;-77
2023/01/11 01:49:51;;;;;;;5.18;1.17;;;;;;;4.74;87.90;100621.69;4961780;28;20094;-77
2023/01/11 01:52:16;;;;;;;3.85;1.40;;;;;;;4.76;87.83;100615.63;4967736;28;20486;-76
2023/01/11 01:54:46;;;;;;;5.13;1.30;;;;;;;4.76;86.80;100610.41;4961273;28;20061;-77
2023/01/11 01:57:23;;;;;;;6.03;1.10;;;;;;;4.80;87.00;100609.63;4958038;28;20471;-77
2023/01/11 01:59:50;;;;;;;4.53;0.93;;;;;;;4.88;86.86;100614.13;4964697;28;20035;-77
2023/01/11 02:02:18;;;;;;;3.83;1.02;;;;;;;4.83;85.87;100601.84;4961967;28;20043;-77
2023/01/11 02:04:46;;;;;;;8.65;1.73;;;;;;;4.92;86.48;100595.88;4958542;28;20083;-77
2023/01/11 02:07:18;;;;;;;3.97;1.23;;;;;;;4.92;85.52;100595.00;4958630;28;20445;-77
2023/01/11 02:10:02;;;;;;;5.75;1.10;;;;;;;4.95;86.13;100580.28;4962144;28;20137;-77
2023/01/11 02:12:33;;;;;;;6.47;1.15;;;;;;;4.94;85.06;100593.31;4962091;28;20031;-77
2023/01/11 02:15:02;;;;;;;7.47;1.48;;;;;;;4.99;85.16;100581.19;4961859;28;20035;-77
2023/01/11 02:17:28;;;;;;;4.32;1.70;;;;;;;5.01;85.87;100577.75;4963618;28;20402;-77
2023/01/11 02:20:11;;;;;;;5.00;1.23;;;;;;;5.03;85.43;100575.13;4962571;28;20031;-77
2023/01/11 02:22:55;;;;;;;5.47;1.65;;;;;;;5.02;84.91;100576.00;4958560;28;20097;-77
2023/01/11 02:25:55;;;;;;;3.88;1.00;;;;;;;5.09;85.10;100563.91;4961193;28;20075;-77
2023/01/11 02:28:30;;;;;;;3.75;1.15;;;;;;;5.13;85.60;100563.97;4961848;28;20047;-76
2023/01/11 02:31:01;;;;;;;6.10;1.40;;;;;;;5.11;84.47;100554.34;4963375;28;20066;-76
2023/01/11 02:33:53;;;;;;;7.15;1.23;;;;;;;5.04;84.36;100558.59;4957339;28;20035;-76
2023/01/11 02:36:36;;;;;;;2.55;0.80;;;;;;;5.05;85.16;100549.88;4957159;28;20039;-76
2023/01/11 02:39:18;;;;;;;2.50;0.70;;;;;;;5.17;85.23;100546.63;4960649;28;20031;-76
2023/01/11 02:45:01;;;;;;;4.25;1.08;;;;;;;5.23;84.91;100539.72;4964116;28;20128;-77
2023/01/11 02:47:38;;;;;;;4.72;0.73;;;;;;;5.29;84.44;100533.69;4959722;28;20098;-76
2023/01/11 02:50:19;;;;;;;3.63;1.38;;;;;;;5.38;83.94;100517.28;4962253;28;20054;-77
2023/01/11 02:53:06;;;;;;;4.18;0.90;;;;;;;5.33;83.15;100514.59;4958577;28;20093;-77
2023/01/11 02:55:37;;;;;;;4.38;1.38;;;;;;;5.39;83.79;100519.03;4957541;28;20078;-77
2023/01/11 02:58:07;;;;;;;3.50;1.00;;;;;;;5.48;83.55;100511.31;4961558;28;20072;-76
2023/01/11 03:00:36;;;;;;;8.10;1.52;;;;;;;5.50;82.81;100514.81;4942635;29;20071;-76
2023/01/11 03:03:23;;;;;;;3.47;1.17;;;;;;;5.56;82.87;100520.16;4964470;28;20069;-76
2023/01/11 03:05:56;;;;;;;4.18;0.85;;;;;;;5.57;82.04;100507.94;4960016;28;20130;-76
2023/01/11 03:08:47;;;;;;;7.20;1.08;;;;;;;5.55;81.94;100504.41;4960877;28;20043;-77
2023/01/11 03:14:46;;;;;;;3.58;0.98;;;;;;;5.69;82.42;100482.81;4963701;28;20046;-77
2023/01/11 03:17:36;;;;;;;2.85;0.85;;;;;;;5.77;82.01;100485.53;4957807;28;20043;-77
2023/01/11 03:20:32;;;;;;;3.92;1.38;;;;;;;5.78;82.23;100481.16;4961839;28;20094;-77
2023/01/11 03:23:11;;;;;;;3.80;1.58;;;;;;;5.82;82.90;100481.22;4964077;28;20443;-77
2023/01/11 03:25:49;;;;;;;5.13;2.08;;;;;;;5.83;82.65;100476.84;4960815;28;20039;-77
2023/01/11 03:28:29;;;;;;;8.00;1.35;;;;;;;5.74;83.26;100479.34;4963857;28;20549;-77
2023/01/11 03:31:04;;;;;;;5.63;1.17;;;;;;;5.77;83.17;100469.81;4964527;28;20508;-76
2023/01/11 03:33:38;;;;;;;3.63;1.15;;;;;;;5.82;83.91;100473.38;4967525;28;20589;-77
2023/01/11 03:36:16;;;;;;;5.13;1.40;;;;;;;5.75;82.73;100468.03;4961936;28;20031;-77
2023/01/11 03:38:49;;;;;;;5.60;1.60;;;;;;;5.68;83.11;100465.31;4966555;28;20023;-76
2023/01/11 03:41:20;;;;;;;4.05;1.10;;;;;;;5.65;83.42;100452.19;4962840;28;20085;-76
2023/01/11 03:43:49;;;;;;;3.60;1.27;;;;;;;5.63;82.27;100456.56;4965469;28;20140;-77
2023/01/11 03:46:28;;;;;;;2.97;1.00;;;;;;;5.60;82.83;100453.00;4965774;28;20066;-76
2023/01/11 03:49:03;;;;;;;2.95;1.10;;;;;;;5.66;83.59;100447.84;4965646;28;20042;-76
2023/01/11 03:51:33;;;;;;;3.55;0.90;;;;;;;5.69;83.40;100443.53;4960565;28;20646;-76
2023/01/11 03:54:02;;;;;;;5.93;1.17;;;;;;;5.69;82.94;100451.38;4966134;28;20135;-77
2023/01/11 03:56:38;;;;;;;3.22;0.88;;;;;;;5.71;83.17;100435.66;4963210;28;20113;-77
2023/01/11 03:59:03;;;;;;;3.53;1.73;;;;;;;5.72;83.15;100430.47;4961504;28;20023;-77
2023/01/11 04:01:29;;;;;;;5.28;1.48;;;;;;;5.70;82.09;100426.06;4966208;28;20035;-77
2023/01/11 04:03:54;;;;;;;4.90;1.30;;;;;;;5.77;82.67;100434.88;4963536;28;20509;-77
2023/01/11 04:06:20;;;;;;;5.43;1.50;;;;;;;5.80;81.69;100437.53;4962814;28;20035;-77
2023/01/11 04:08:46;;;;;;;2.80;0.90;;;;;;;5.83;81.31;100434.94;4966097;28;20405;-77
2023/01/11 04:11:11;;;;;;;3.08;0.93;;;;;;;5.89;82.00;100437.63;4967101;28;20034;-77
2023/01/11 04:13:37;;;;;;;9.30;1.05;;;;;;;5.89;80.03;100428.06;4947928;28;20079;-77
2023/01/11 04:16:02;;;;;;;4.68;1.10;;;;;;;5.89;80.37;100416.69;4964355;28;20074;-77
2023/01/11 04:18:27;;;;;;;6.93;1.20;;;;;;;5.88;79.03;100425.41;4965107;28;20031;-77
2023/01/11 04:20:53;;;;;;;5.00;0.98;;;;;;;5.85;79.31;100414.91;4964931;28;20616;-77
2023/01/11 04:23:18;;;;;;;5.63;0.70;;;;;;;5.82;79.33;100414.88;4966358;28;20548;-77
2023/01/11 04:25:45;;;;;;;4.90;0.90;;;;;;;5.87;79.66;100419.28;4963495;28;20027;-77
2023/01/11 04:28:11;;;;;;;4.45;1.42;;;;;;;5.92;79.49;100412.38;4960100;28;20035;-77
2023/01/11 04:30:36;;;;;;;3.67;0.98;;;;;;;5.97;79.74;100415.03;4965481;28;20035;-77
2023/01/11 04:33:02;;;;;;;5.25;1.13;;;;;;;5.98;80.03;100422.06;4963115;28;20054;-77
2023/01/11 04:35:27;;;;;;;3.80;0.90;;;;;;;5.97;79.44;100419.41;4964929;28;20618;-77
2023/01/11 04:37:56;;;;;;;4.90;1.08;;;;;;;6.00;79.80;100414.19;4963238;28;20035;-77
2023/01/11 04:40:22;;;;;;;3.92;1.10;;;;;;;6.01;79.76;100419.47;4962888;28;20042;-77
2023/01/11 04:42:48;;;;;;;3.85;1.00;;;;;;;6.04;80.02;100410.75;4957427;28;20763;-77
2023/01/11 04:45:13;;;;;;;4.75;1.13;;;;;;;6.06;79.90;100404.69;4965397;28;20041;-77
2023/01/11 04:47:38;;;;;;;7.03;1.20;;;;;;;6.04;79.45;100401.16;4958519;28;20038;-77
2023/01/11 04:50:04;;;;;;;4.88;1.20;;;;;;;6.02;79.88;100394.16;4963260;28;20027;-77
2023/01/11 04:52:30;;;;;;;3.70;1.10;;;;;;;6.01;79.80;100390.66;4960857;28;20070;-77
2023/01/11 04:54:55;;;;;;;5.28;1.10;;;;;;;6.01;80.12;100385.41;4966169;28;20030;-77
2023/01/11 04:57:21;;;;;;;2.55;1.05;;;;;;;5.93;79.97;100392.28;4962667;28;20565;-77
2023/01/11 04:59:47;;;;;;;5.10;1.02;;;;;;;6.01;80.56;100390.66;4965303;28;20110;-78
2023/01/11 05:02:14;;;;;;;4.68;1.08;;;;;;;6.10;80.04;100395.09;4964662;28;20098;-77
2023/01/11 05:04:39;;;;;;;4.10;0.90;;;;;;;6.04;79.63;100384.56;4958587;28;20042;-77
2023/01/11 05:07:06;;;;;;;6.60;1.63;;;;;;;6.11;79.96;100391.63;4962981;28;20034;-77
2023/01/11 05:09:32;;;;;;;5.05;1.42;;;;;;;6.13;80.60;100384.63;4964163;28;20386;-77
2023/01/11 05:11:57;;;;;;;3.75;1.05;;;;;;;6.19;80.21;100375.97;4962718;28;20053;-77
2023/01/11 05:14:22;;;;;;;3.50;1.00;;;;;;;6.25;80.34;100373.41;4965614;28;20042;-77
2023/01/11 05:16:48;;;;;;;4.05;1.23;;;;;;;6.23;80.45;100364.66;4962635;28;20039;-77
2023/01/11 05:19:13;;;;;;;4.10;1.05;;;;;;;6.23;80.07;100357.66;4960039;28;20117;-78
2023/01/11 05:21:40;;;;;;;5.53;1.10;;;;;;;6.23;80.66;100362.03;4965077;28;20041;-78
2023/01/11 05:24:09;;;;;;;4.65;1.20;;;;;;;6.28;80.28;100363.81;4957436;28;20039;-78
2023/01/11 05:26:37;;;;;;;5.20;1.45;;;;;;;6.31;80.92;100353.38;4962453;28;20574;-78
2023/01/11 05:29:06;;;;;;;4.18;1.02;;;;;;;6.21;80.69;100358.50;4963807;28;20043;-78
2023/01/11 05:31:33;;;;;;;3.20;0.90;;;;;;;6.25;81.49;100350.69;4965162;28;20046;-78
2023/01/11 05:33:59;;;;;;;7.43;1.52;;;;;;;6.26;81.16;100352.47;4962513;28;20132;-77
2023/01/11 05:36:26;;;;;;;5.47;1.27;;;;;;;6.26;82.29;100354.19;4961925;28;20054;-78
2023/01/11 05:38:53;;;;;;;4.75;1.38;;;;;;;6.29;81.96;100338.50;4966932;28;20025;-78
2023/01/11 05:41:21;;;;;;;3.53;0.82;;;;;;;6.32;81.80;100331.53;4956800;28;20042;-77
2023/01/11 05:46:34;;;;;;;5.72;2.30;;;;;;;6.30;84.16;100335.00;4960666;28;20438;-77
2023/01/11 05:49:00;;;;;;;4.72;1.10;;;;;;;6.20;83.76;100334.06;4961991;28;20494;-78
2023/01/11 05:51:29;;;;;;;5.97;1.30;;;;;;;6.25;83.75;100337.59;4973525;28;20086;-78
2023/01/11 05:53:58;;;;;;;2.53;0.73;;;;;;;6.32;83.46;100331.53;4963314;28;20390;-78
2023/01/11 05:56:24;;;;;;;2.25;0.80;;;;;;;6.40;83.43;100331.59;4963746;28;20030;-78
2023/01/11 05:58:51;;;;;;;11.00;4.30;;;;;;;6.43;83.31;100328.13;4957474;28;20383;-78
2023/01/11 06:01:18;;;;;;;8.10;2.15;;;;;;;6.43;83.09;100331.63;4957570;28;20118;-77
2023/01/11 06:03:44;;;;;;;6.50;1.58;;;;;;;6.44;83.50;100335.97;4962889;28;20121;-78
2023/01/11 06:06:09;;;;;;;3.53;1.20;;;;;;;6.44;83.37;100335.97;4960028;28;20039;-78
2023/01/11 06:08:35;;;;;;;3.60;1.13;;;;;;;6.45;84.06;100327.28;4963831;28;20027;-78
2023/01/11 06:11:00;;;;;;;5.10;1.30;;;;;;;6.48;83.25;100323.78;4961282;28;20046;-78
2023/01/11 06:13:26;;;;;;;3.88;1.10;;;;;;;6.51;83.55;100319.44;4964086;28;20125;-78
2023/01/11 06:15:58;;;;;;;4.28;1.10;;;;;;;6.49;83.50;100323.78;4960215;28;20071;-78
2023/01/11 06:18:23;;;;;;;3.75;1.33;;;;;;;6.52;84.11;100315.97;4962537;28;20035;-78
2023/01/11 06:20:49;;;;;;;6.78;1.63;;;;;;;6.54;83.92;100323.81;4962410;28;20043;-78
2023/01/11 06:23:15;;;;;;;2.53;0.98;;;;;;;6.59;84.17;100312.50;4963411;28;20398;-78
2023/01/11 06:25:41;;;;;;;3.67;1.77;;;;;;;6.56;83.99;100311.59;4960940;28;20170;-78
2023/01/11 06:28:06;;;;;;;6.93;1.30;;;;;;;6.56;84.35;100317.72;4964717;28;20514;-78
2023/01/11 06:30:31;;;;;;;4.25;1.85;;;;;;;6.51;84.94;100313.31;4962450;28;20027;-78
2023/01/11 06:33:06;;;;;;;3.35;0.82;;;;;;;6.53;85.14;100315.09;4963479;28;20045;-78
2023/01/11 06:35:39;;;;;;;4.40;1.17;;;;;;;6.61;85.35;100319.50;4944217;29;20093;-78
2023/01/11 06:38:06;;;;;;;3.17;1.17;;;;;;;6.65;85.63;100316.03;4957320;28;20460;-78
2023/01/11 06:40:31;;;;;;;3.50;1.08;;;;;;;6.69;85.60;100321.31;4962190;28;20095;-79
2023/01/11 06:42:57;;;;;;;2.55;0.90;;;;;;;6.61;85.59;100324.75;4962326;28;20449;-78
2023/01/11 06:45:22;;;;;;;3.53;1.02;;;;;;;6.69;86.29;100313.44;4998277;23;20137;-77
2023/01/11 06:47:48;;;;;;;3.20;0.75;;;;;;;6.75;85.95;100318.72;4990531;28;20030;-77
2023/01/11 06:50:13;;;;;;;4.90;0.85;;;;;;;6.75;86.27;100318.72;4987978;28;20061;-77
2023/01/11 06:52:38;;;;;;;2.42;0.93;;;;;;;6.79;85.23;100324.88;4989832;28;20034;-77
2023/01/11 06:55:04;;;;;;;4.32;1.30;;;;;;;6.82;85.76;100321.41;4991186;28;20062;-76
2023/01/11 06:57:29;;;;;;;4.03;1.20;;;;;;;6.82;85.45;100316.16;4991789;28;20441;-77
2023/01/11 06:59:55;;;;;;;4.90;1.27;;;;;;;6.84;85.73;100320.53;4991678;28;20038;-76
2023/01/11 07:02:20;;;;;;;3.47;1.00;;;;;;;6.86;86.02;100316.16;4992198;28;20110;-77
2023/01/11 07:04:45;;;;;;;2.72;1.17;;;;;;;6.87;85.89;100317.91;4986675;28;20031;-76
2023/01/11 07:07:11;;;;;;;5.22;1.08;;;;;;;6.94;85.56;100313.56;4990932;28;20035;-76
2023/01/11 07:09:36;;;;;;;3.25;1.00;;;;;;;6.91;86.70;100316.19;4991879;28;20104;-77
2023/01/11 07:12:02;;;;;;;3.47;0.85;;;;;;;6.91;86.06;100330.16;4992205;28;20093;-77
2023/01/11 07:14:27;;;;;;;3.42;1.10;;;;;;;6.88;86.48;100324.03;4992539;28;20053;-77
2023/01/11 07:16:52;;;;;;;3.33;1.27;;;;;;;6.89;86.69;100329.31;4991608;28;20042;-77
2023/01/11 07:19:18;;;;;;;3.35;1.00;;;;;;;6.94;86.64;100329.31;4991217;28;20044;-76
2023/01/11 07:21:43;;;;;;;3.78;1.17;;;;;;;6.95;86.46;100326.72;4988447;28;20034;-77
2023/01/11 07:24:08;;;;;;;3.13;1.02;;;;;;;6.99;87.15;100323.22;4992597;28;20045;-76
2023/01/11 07:26:39;;;;;;;3.17;0.80;;;;;;;7.08;86.62;100321.53;4991464;28;20069;-76
2023/01/11 07:29:06;;;;;;;4.50;1.33;;;;;;;7.14;86.18;100321.53;4992654;28;20038;-77
2023/01/11 07:31:31;;;;;;;3.05;0.80;;;;;;;7.17;86.45;100316.31;4992445;28;20038;-77
2023/01/11 07:33:56;;;;;;;2.97;0.90;;;;;;;7.20;86.91;100316.31;4992843;28;20141;-77
2023/01/11 07:36:21;;;;;;;4.10;1.50;;;;;;;7.18;86.87;100308.44;4989864;28;20038;-77
2023/01/11 07:38:47;;;;;;;4.72;1.10;;;;;;;7.20;87.25;100309.34;4989862;28;20031;-77
2023/01/11 07:43:56;;;;;;;3.22;1.17;;;;;;;7.37;86.82;100313.78;4989760;28;20400;-77
2023/01/11 07:46:22;;;;;;;2.55;0.88;;;;;;;7.42;86.73;100312.03;4992248;28;20065;-77
2023/01/11 07:48:47;;;;;;;2.72;1.25;;;;;;;7.42;86.82;100319.91;4992682;28;20153;-77
2023/01/11 07:51:12;;;;;;;3.70;1.25;;;;;;;7.50;87.30;100322.56;4991568;28;20096;-77
2023/01/11 07:53:38;;;;;;;4.22;1.13;;;;;;;7.57;86.21;100319.06;4992562;28;20058;-77
2023/01/11 07:56:03;;;;;;;4.82;0.90;;;;;;;7.56;86.98;100319.94;4991990;28;20026;-77
2023/01/11 07:58:28;;;;;;;3.28;0.82;;;;;;;7.54;86.74;100321.69;4992562;28;20536;-77
2023/01/11 08:00:54;;;;;;;4.30;1.10;;;;;;;7.51;85.83;100316.44;4992887;28;20416;-77
2023/01/11 08:03:19;;;;;;;2.80;1.05;;;;;;;7.55;86.32;100315.59;4992174;28;20040;-77
2023/01/11 08:05:50;;;;;;;3.83;0.93;;;;;;;7.55;86.15;100305.94;4994112;28;20057;-77
2023/01/11 08:08:15;;;;;;;5.15;1.35;;;;;;;7.57;86.73;100311.19;4991747;28;20042;-77
2023/01/11 08:10:40;;;;;;;4.35;1.33;;;;;;;7.58;87.11;100308.56;4995789;28;20041;-77
2023/01/11 08:15:56;;;;;;;3.17;1.10;;;;;;;7.62;86.26;100309.44;4992703;28;20046;-76
2023/01/11 08:18:21;;;;;;;3.17;1.02;;;;;;;7.68;86.96;100304.22;4996135;28;20038;-77
2023/01/11 08:20:51;;;;;;;6.10;1.85;;;;;;;7.66;87.25;100300.72;4994908;28;20088;-77
2023/01/11 08:23:17;;;;;;;4.28;1.30;;;;;;;7.64;87.56;100295.44;4993333;28;20053;-77
2023/01/11 08:25:42;;;;;;;4.85;1.27;;;;;;;7.61;88.12;100289.31;4994721;28;20038;-77
2023/01/11 08:28:09;;;;;;;4.30;1.20;;;;;;;7.56;89.50;100288.44;4994662;28;20481;-76
2023/01/11 08:30:35;;;;;;;5.50;1.77;;;;;;;7.63;89.66;100296.34;4994705;28;20378;-77
2023/01/11 08:33:01;;;;;;;3.28;1.13;;;;;;;7.66;89.37;100292.84;4992352;28;20034;-76
2023/01/11 08:35:27;;;;;;;3.78;0.82;;;;;;;7.74;89.39;100288.47;4994080;28;20097;-76
2023/01/11 08:37:52;;;;;;;6.15;1.15;;;;;;;7.86;89.32;100285.88;4992618;28;20026;-76
2023/01/11 08:40:18;;;;;;;3.05;1.05;;;;;;;7.93;88.78;100284.09;4992520;28;20031;-77
2023/01/11 08:42:43;;;;;;;3.13;1.15;;;;;;;7.94;88.97;100282.34;4994790;28;20049;-77
2023/01/11 08:45:09;;;;;;;5.63;1.00;;;;;;;7.94;88.93;100279.72;4994345;28;20101;-77
2023/01/11 08:47:34;;;;;;;5.60;1.05;;;;;;;7.98;89.23;100286.75;4994011;28;20062;-77
2023/01/11 08:49:59;;;;;;;2.78;1.02;;;;;;;7.99;88.63;100288.47;4992996;28;20036;-77
2023/01/11 08:52:25;;;;;;;2.83;0.82;;;;;;;8.03;89.14;100285.00;4994579;28;20030;-77
2023/01/11 08:54:50;;;;;;;5.43;0.90;;;;;;;8.08;88.29;100288.50;4994477;28;20125;-77
2023/01/11 08:57:15;;;;;;;2.85;0.98;;;;;;;8.12;87.94;100274.47;4993034;28;20121;-77
2023/01/11 08:59:41;;;;;;;2.17;0.90;;;;;;;8.19;87.95;100277.97;4992474;28;20508;-77
2023/01/11 09:02:06;;;;;;;2.53;0.90;;;;;;;8.24;87.57;100284.97;4991720;28;20042;-76
2023/01/11 09:04:32;;;;;;;4.28;1.25;;;;;;;8.22;87.37;100278.84;4993724;28;20049;-77
2023/01/11 09:06:58;;;;;;;6.97;1.30;;;;;;;8.26;88.08;100285.88;4990913;28;20724;-77
2023/01/11 09:09:23;;;;;;;3.90;1.67;;;;;;;8.25;87.73;100280.59;4993122;28;20126;-77
2023/01/11 09:12:07;;;;;;;4.28;1.02;;;;;;;8.30;88.12;100278.84;4992477;28;20042;-76
2023/01/11 09:14:33;;;;;;;4.88;1.10;;;;;;;8.40;87.85;100270.09;4991036;28;20042;-77
2023/01/11 09:16:58;;;;;;;4.03;1.08;;;;;;;8.52;88.09;100275.34;4991357;28;20100;-77
2023/01/11 09:19:24;;;;;;;3.95;1.05;;;;;;;8.45;87.85;100267.47;4973952;28;20034;-77
2023/01/11 09:21:50;;;;;;;6.05;1.70;;;;;;;8.48;88.55;100272.72;4990800;28;20035;-77
2023/01/11 09:24:16;;;;;;;3.28;1.20;;;;;;;8.54;89.08;100270.97;4993844;28;20405;-76
2023/01/11 09:26:42;;;;;;;2.92;1.10;;;;;;;8.54;88.86;100265.69;4994091;28;20042;-77
2023/01/11 09:29:08;;;;;;;3.42;1.10;;;;;;;8.55;88.89;100256.06;4994555;28;20053;-77
2023/01/11 09:31:33;;;;;;;3.30;1.05;;;;;;;8.58;89.36;100260.44;4994166;28;20030;-77
2023/01/11 09:33:58;;;;;;;3.15;1.70;;;;;;;8.61;90.19;100253.41;4995247;28;20038;-77
2023/01/11 09:36:26;;;;;;;4.07;1.30;;;;;;;8.65;90.50;100255.16;4991832;28;20049;-76
2023/01/11 09:38:55;;;;;;;2.40;0.85;;;;;;;8.65;90.77;100244.63;4992730;28;20162;-77
2023/01/11 09:41:49;;;;;;;3.17;1.30;;;;;;;8.72;90.84;100242.84;4989696;28;20456;-77
2023/01/11 09:44:22;;;;;;;3.47;1.00;;;;;;;8.68;90.69;100239.34;4993243;28;20420;-77
2023/01/11 09:46:51;;;;;;;3.13;1.35;;;;;;;8.72;91.26;100230.59;4992745;28;20125;-77
2023/01/11 09:49:29;;;;;;;3.55;0.82;;;;;;;8.66;91.72;100229.72;4992910;28;20436;-77
2023/01/11 09:52:13;;;;;;;4.30;0.70;;;;;;;8.65;91.86;100233.25;4988559;28;20042;-77
2023/01/11 09:54:39;;;;;;;4.85;1.27;;;;;;;8.77;92.00;100233.16;4990438;28;20041;-77
2023/01/11 09:57:22;;;;;;;3.95;1.80;;;;;;;8.89;91.95;100219.97;4993474;28;20042;-77
2023/01/11 10:00:15;;;;;;;3.33;1.15;;;;;;;8.91;91.28;100220.84;4989089;28;20519;-77
2023/01/11 10:02:47;;;;;;;5.32;1.00;;;;;;;8.91;90.85;100207.69;4989744;28;20050;-77
2023/01/11 10:05:58;;;;;;;2.67;0.75;;;;;;;8.95;90.87;100209.41;4991214;28;20113;-76
2023/01/11 10:09:03;;;;;;;3.00;0.80;;;;;;;9.08;90.39;100207.59;4953921;28;20089;-76
2023/01/11 10:11:48;;;;;;;4.15;1.02;;;;;;;9.02;89.77;100206.78;4990201;28;20038;-77
2023/01/11 10:14:24;;;;;;;4.93;1.00;;;;;;;9.06;90.67;100208.50;4990776;28;20058;-76
2023/01/11 10:17:15;;;;;;;3.10;0.93;;;;;;;9.15;90.24;100211.09;4988169;28;20074;-77
2023/01/11 10:19:58;;;;;;;3.42;0.88;;;;;;;9.23;89.43;100205.78;4987659;28;20038;-76
2023/01/11 10:22:31;;;;;;;2.08;0.88;;;;;;;9.24;90.12;100202.25;4988052;28;20034;-77
2023/01/11 10:25:14;;;;;;;2.90;1.05;;;;;;;9.36;89.00;100197.78;4992534;28;20066;-77
2023/01/11 10:27:54;;;;;;;1.63;0.57;;;;;;;9.42;89.52;100192.47;4987753;28;20458;-76
2023/01/11 10:30:41;;;;;;;3.05;0.88;;;;;;;9.48;89.51;100182.78;4991022;28;20037;-74
2023/01/11 10:37:00;;;;;;;2.33;0.70;;;;;;;9.57;88.35;100188.84;4991067;28;20117;-74
2023/01/11 10:42:00;;;;;;;3.38;0.80;;;;;;;9.74;88.00;100175.53;4991686;28;20077;-75
2023/01/11 10:44:36;;;;;;;1.45;0.47;;;;;;;9.76;87.20;100176.41;4991286;28;20030;-75
2023/01/11 10:47:03;;;;;;;1.75;0.80;;;;;;;9.86;86.85;100180.72;4990947;28;20379;-75
2023/01/11 10:49:44;;;;;;;1.50;0.60;;;;;;;9.94;86.21;100172.72;4992844;28;20033;-77
2023/01/11 10:52:24;;;;;;;3.05;0.70;;;;;;;10.02;85.18;100183.22;4991803;28;20428;-77
2023/01/11 10:54:53;;;;;;;3.00;1.05;;;;;;;10.03;85.72;100175.31;4990362;28;20084;-77
2023/01/11 10:57:47;;;;;;;3.20;0.80;;;;;;;10.03;85.38;100171.75;4975421;28;20425;-78
2023/01/11 11:00:43;;;;;;;1.52;0.63;;;;;;;10.08;84.80;100162.03;4991006;28;20489;-75
2023/01/11 11:03:53;;;;;;;0.60;0.38;;;;;;;10.19;85.47;100161.94;4991131;28;20117;-77
2023/01/11 11:06:33;;;;;;;2.30;1.00;;;;;;;10.21;84.90;100154.88;4984568;28;20054;-77
2023/01/11 11:09:15;;;;;;;1.67;0.63;;;;;;;10.21;84.77;100154.88;4989817;28;20041;-78
2023/01/11 11:12:02;;;;;;;2.30;0.80;;;;;;;10.19;85.73;100151.38;4992897;28;20053;-77
2023/01/11 11:14:47;;;;;;;3.00;0.60;;;;;;;10.21;85.58;100146.97;4992561;28;20126;-77
2023/01/11 11:17:24;;;;;;;1.98;0.80;;;;;;;10.26;85.17;100142.53;4991011;28;20034;-78
2023/01/11 11:19:50;;;;;;;2.28;0.55;;;;;;;10.36;85.16;100138.06;4994835;28;20042;-77
2023/01/11 11:22:19;;;;;;;1.73;0.68;;;;;;;10.37;85.84;100138.03;4996949;28;20049;-77
2023/01/11 11:24:52;;;;;;;4.22;1.65;;;;;;;10.36;85.26;100133.66;5000033;28;20088;-78
2023/01/11 11:27:26;;;;;;;3.47;1.30;;;;;;;10.50;85.17;100134.34;4999453;28;20430;-77
2023/01/11 11:29:54;;;;;;;2.63;1.10;;;;;;;10.56;84.58;100133.41;4993136;28;20837;-77
2023/01/11 11:32:28;;;;;;;1.55;0.55;;;;;;;10.63;84.39;100123.66;4991158;28;20042;-77
2023/01/11 11:34:54;;;;;;;1.92;0.80;;;;;;;10.69;84.12;100123.59;4990623;28;20034;-77
2023/01/11 11:37:22;;;;;;;1.80;0.70;;;;;;;10.71;84.57;100121.78;4987111;28;20393;-76
2023/01/11 11:39:50;;;;;;;1.58;0.73;;;;;;;10.77;84.39;100124.34;4992766;28;20042;-76
2023/01/11 11:42:17;;;;;;;2.20;0.65;;;;;;;10.83;84.76;100113.69;4995391;28;20038;-76
2023/01/11 11:44:42;;;;;;;1.48;0.55;;;;;;;10.89;84.39;100116.25;4993949;28;20501;-76
2023/01/11 11:47:14;;;;;;;1.27;0.40;;;;;;;10.86;84.13;100116.28;4994558;28;20050;-76
2023/01/11 11:49:40;;;;;;;0.98;0.38;;;;;;;10.84;84.89;100118.06;4995128;28;20030;-74
2023/01/11 11:52:16;;;;;;;2.80;0.63;;;;;;;10.80;84.74;100120.81;4991006;28;20475;-74
2023/01/11 11:54:55;;;;;;;1.65;0.50;;;;;;;10.80;85.06;100119.03;4991693;28;20500;-74
2023/01/11 11:57:33;;;;;;;2.63;0.68;;;;;;;10.69;85.21;100119.19;4994132;28;20680;-74
2023/01/11 12:00:08;;;;;;;3.78;0.80;;;;;;;10.64;86.09;100109.56;4994188;28;20065;-75
2023/01/11 12:02:40;;;;;;;1.85;0.70;;;;;;;10.60;85.77;100107.84;4990077;28;20061;-75
2023/01/11 12:05:09;;;;;;;1.73;0.60;;;;;;;10.53;85.91;100096.50;4994829;28;20038;-75
2023/01/11 12:07:53;;;;;;;2.63;1.00;;;;;;;10.56;86.19;100100.84;4990073;28;20042;-75
2023/01/11 12:10:22;;;;;;;3.10;1.38;;;;;;;10.57;86.16;100099.97;4992894;28;20030;-75
2023/01/11 12:12:55;;;;;;;1.27;0.60;;;;;;;10.62;86.17;100106.94;4994386;28;20034;-74
2023/01/11 12:15:24;;;;;;;4.43;1.02;;;;;;;10.57;85.41;100102.63;4991528;28;20489;-75